Libramont — ONCV — position and weather

sailwx.info

Track history (hours):
 
Tides and Currents Weather Stations Pressure Air Temp Water Temp Dewpoint Dewpoint Depression Visibility Wind Speed Wind Dir Waves Ship Positions

Libramont

Last reported at 2018-Jul-21 01:33 UTC. Time now 2018-Jul-22 10:36 UTC.
Position N 37°34' E 009°55'.

Length 180 m; draft 9.1 m.

Type: Tanker. MMSI: 205460000.

Date/timePositionNaut miles runAvg speedWind from/ knotsBaromVisibWave heightAir tempDewpointWater temp
2018-Jul-21 01:33N 37°34' E 009°55'19914.7
2018-Jul-20 12:01N 37°35' E 005°44'013.9
2018-Jul-20 12:00N 37°35' E 005°44'1014.1
2018-Jul-20 11:17N 37°35' E 005°31'814.0
2018-Jul-20 10:45N 37°33' E 005°22'314.2
2018-Jul-20 10:30N 37°32' E 005°17'814.5
2018-Jul-20 09:57N 37°30' E 005°07'15215.0
2018-Jul-19 23:50N 36°56' E 002°02'516.2
2018-Jul-19 23:30N 36°54' E 001°55'815.7
2018-Jul-19 23:00N 36°52' E 001°46'815.6
2018-Jul-19 22:30N 36°50' E 001°36'915.8
2018-Jul-19 21:55N 36°48' E 001°25'1015.9
2018-Jul-19 21:18N 36°46' E 001°13'516.0
2018-Jul-19 21:00N 36°44' E 001°07'816.0
2018-Jul-19 20:30N 36°43' E 000°58'1515.4
2018-Jul-19 19:34N 36°39' E 000°40'415.2
2018-Jul-19 19:18N 36°38' E 000°35'615.0
2018-Jul-19 18:55N 36°37' E 000°28'614.7
2018-Jul-19 18:30N 36°33' E 000°22'815.9
2018-Jul-19 18:00N 36°27' E 000°16'816.3
2018-Jul-19 17:30N 36°21' E 000°09'816.0
2018-Jul-19 17:00N 36°15' E 000°02'815.5
2018-Jul-19 16:29N 36°09' W 000°03'914.9
2018-Jul-19 15:53N 35°60' W 000°06'  
2018-Jul-17 05:32N 35°49' W 000°10'0 1.6
2018-Jul-17 05:30N 35°49' W 000°10'1 1.1
2018-Jul-17 04:42N 35°50' W 000°10'1 4.0
2018-Jul-17 04:30N 35°50' W 000°10'4 7.1
2018-Jul-17 04:00N 35°54' W 000°12'0 0.7
2018-Jul-17 03:30N 35°54' W 000°12'0 0.3
2018-Jul-17 02:29N 35°53' W 000°12'0 0.3
2018-Jul-17 02:00N 35°53' W 000°12'0 0.5
2018-Jul-17 01:30N 35°53' W 000°11'0 0.5
2018-Jul-17 01:00N 35°53' W 000°11'0 0.5
2018-Jul-17 00:30N 35°53' W 000°11'0 0.3
2018-Jul-16 23:27N 35°53' W 000°11'0 0.3
2018-Jul-16 23:00N 35°53' W 000°10'0 0.4
2018-Jul-16 22:30N 35°53' W 000°10'1 0.6
2018-Jul-16 21:30N 35°54' W 000°10'3 0.1
2018-Jul-15 19:43N 35°56' W 000°11'1 1.5
2018-Jul-15 19:08N 35°57' W 000°12'17 6.7
2018-Jul-15 16:39N 36°12' W 000°04'1 2.9
2018-Jul-15 16:08N 36°11' W 000°06'  
2018-Jul-12 23:41N 36°05' W 000°06'0 0.2
2018-Jul-12 23:18N 36°06' W 000°06'0 0.2
2018-Jul-12 23:00N 36°06' W 000°06'0 0.4
2018-Jul-12 22:30N 36°06' W 000°06'0 0.4
2018-Jul-12 21:19N 36°06' W 000°07'7 6.1
2018-Jul-12 20:09N 35°59' W 000°06'213.2
2018-Jul-12 19:58N 35°56' W 000°06'1 2.9
2018-Jul-12 19:30N 35°55' W 000°05'1 1.2
2018-Jul-12 18:58N 35°56' W 000°06'0 1.0
2018-Jul-12 18:30N 35°56' W 000°06'1 1.1
2018-Jul-12 17:12N 35°57' W 000°06'0 1.2
2018-Jul-12 16:55N 35°58' W 000°06'1 1.2
2018-Jul-12 16:27N 35°58' W 000°06'0 1.1
2018-Jul-12 16:00N 35°59' W 000°06'0 0.8
2018-Jul-12 15:28N 35°59' W 000°06'0 0.8
2018-Jul-12 14:57N 35°59' W 000°07'1 1.3
2018-Jul-12 13:59N 36°01' W 000°07'2 1.3
2018-Jul-12 12:20N 36°03' W 000°08'1 1.1
2018-Jul-12 11:43N 36°03' W 000°08'0 1.0
2018-Jul-12 11:30N 36°04' W 000°08'0 0.8
2018-Jul-12 10:59N 36°04' W 000°09'0 0.6
2018-Jul-12 10:30N 36°04' W 000°09'0 0.4
2018-Jul-12 10:00N 36°04' W 000°09'2 0.5
2018-Jul-12 05:53N 36°03' W 000°12'0 0.3
2018-Jul-12 04:55N 36°03' W 000°12'0 0.4
2018-Jul-12 04:30N 36°03' W 000°12'0 0.6
2018-Jul-12 04:00N 36°03' W 000°13'0 0.7
2018-Jul-12 03:29N 36°03' W 000°13'0 0.7
2018-Jul-12 03:00N 36°02' W 000°13'0 0.5
2018-Jul-12 02:17N 36°02' W 000°13'0 0.7
2018-Jul-12 01:40N 36°01' W 000°13'0 0.7
2018-Jul-12 01:28N 36°01' W 000°13'0 0.6
2018-Jul-12 01:00N 36°01' W 000°12'2 0.5
2018-Jul-11 19:47N 35°60' W 000°10'0 0.5
2018-Jul-11 19:30N 35°60' W 000°10'0 0.5
2018-Jul-11 18:57N 36°00' W 000°09'0 0.6
2018-Jul-11 18:30N 36°00' W 000°09'0 0.5
2018-Jul-11 18:00N 36°01' W 000°09'0 0.6
2018-Jul-11 17:30N 36°01' W 000°09'1 1.0
2018-Jul-11 17:00N 36°01' W 000°09'2 3.2
2018-Jul-11 16:30N 36°03' W 000°08'612.8
2018-Jul-11 16:00N 36°04' W 000°01'0 0.4
2018-Jul-11 15:29N 36°04' W 000°00'0 0.8
2018-Jul-11 14:55N 36°05' W 000°00'0 0.8
2018-Jul-11 14:30N 36°05' W 000°01'0 0.8
2018-Jul-11 13:55N 36°05' W 000°01'0 0.9
2018-Jul-11 13:30N 36°06' W 000°01'0 0.9
2018-Jul-11 13:00N 36°06' W 000°02'6 3.7
2018-Jul-11 11:29N 36°00' W 000°01'0 0.9
2018-Jul-11 11:00N 36°01' W 000°01'2 0.5
2018-Jul-11 08:10N 36°01' W 000°03'3 0.8
2018-Jul-11 04:05N 35°59' W 000°06'0 0.4
2018-Jul-11 03:55N 35°59' W 000°06'1 1.2
2018-Jul-11 03:30N 35°59' W 000°06'1 1.2
2018-Jul-11 02:59N 35°58' W 000°07'0 0.9
2018-Jul-11 02:30N 35°58' W 000°07'0 0.7
2018-Jul-11 01:59N 35°58' W 000°08'  
Track history (hours):
 
Tides and Currents Weather Stations Pressure Air Temp Water Temp Dewpoint Dewpoint Depression Visibility Wind Speed Wind Dir Waves Ship Positions

Libramont

Last reported at 2018-Jul-21 01:33 UTC. Time now 2018-Jul-22 10:36 UTC.
Position N 37°34' E 009°55'.

Length 180 m; draft 9.1 m.

Type: Tanker. MMSI: 205460000.

Date/timePositionNaut miles runAvg speedWind from/ knotsBaromVisibWave heightAir tempDewpointWater temp
2018-Jul-21 01:33N 37°34' E 009°55'19914.7
2018-Jul-20 12:01N 37°35' E 005°44'013.9
2018-Jul-20 12:00N 37°35' E 005°44'1014.1
2018-Jul-20 11:17N 37°35' E 005°31'814.0
2018-Jul-20 10:45N 37°33' E 005°22'314.2
2018-Jul-20 10:30N 37°32' E 005°17'814.5
2018-Jul-20 09:57N 37°30' E 005°07'15215.0
2018-Jul-19 23:50N 36°56' E 002°02'516.2
2018-Jul-19 23:30N 36°54' E 001°55'815.7
2018-Jul-19 23:00N 36°52' E 001°46'815.6
2018-Jul-19 22:30N 36°50' E 001°36'915.8
2018-Jul-19 21:55N 36°48' E 001°25'1015.9
2018-Jul-19 21:18N 36°46' E 001°13'516.0
2018-Jul-19 21:00N 36°44' E 001°07'816.0
2018-Jul-19 20:30N 36°43' E 000°58'1515.4
2018-Jul-19 19:34N 36°39' E 000°40'415.2
2018-Jul-19 19:18N 36°38' E 000°35'615.0
2018-Jul-19 18:55N 36°37' E 000°28'614.7
2018-Jul-19 18:30N 36°33' E 000°22'815.9
2018-Jul-19 18:00N 36°27' E 000°16'816.3
2018-Jul-19 17:30N 36°21' E 000°09'816.0
2018-Jul-19 17:00N 36°15' E 000°02'815.5
2018-Jul-19 16:29N 36°09' W 000°03'914.9
2018-Jul-19 15:53N 35°60' W 000°06'  
2018-Jul-17 05:32N 35°49' W 000°10'0 1.6
2018-Jul-17 05:30N 35°49' W 000°10'1 1.1
2018-Jul-17 04:42N 35°50' W 000°10'1 4.0
2018-Jul-17 04:30N 35°50' W 000°10'4 7.1
2018-Jul-17 04:00N 35°54' W 000°12'0 0.7
2018-Jul-17 03:30N 35°54' W 000°12'0 0.3
2018-Jul-17 02:29N 35°53' W 000°12'0 0.3
2018-Jul-17 02:00N 35°53' W 000°12'0 0.5
2018-Jul-17 01:30N 35°53' W 000°11'0 0.5
2018-Jul-17 01:00N 35°53' W 000°11'0 0.5
2018-Jul-17 00:30N 35°53' W 000°11'0 0.3
2018-Jul-16 23:27N 35°53' W 000°11'0 0.3
2018-Jul-16 23:00N 35°53' W 000°10'0 0.4
2018-Jul-16 22:30N 35°53' W 000°10'1 0.6
2018-Jul-16 21:30N 35°54' W 000°10'3 0.1
2018-Jul-15 19:43N 35°56' W 000°11'1 1.5
2018-Jul-15 19:08N 35°57' W 000°12'17 6.7
2018-Jul-15 16:39N 36°12' W 000°04'1 2.9
2018-Jul-15 16:08N 36°11' W 000°06'  
2018-Jul-12 23:41N 36°05' W 000°06'0 0.2
2018-Jul-12 23:18N 36°06' W 000°06'0 0.2
2018-Jul-12 23:00N 36°06' W 000°06'0 0.4
2018-Jul-12 22:30N 36°06' W 000°06'0 0.4
2018-Jul-12 21:19N 36°06' W 000°07'7 6.1
2018-Jul-12 20:09N 35°59' W 000°06'213.2
2018-Jul-12 19:58N 35°56' W 000°06'1 2.9
2018-Jul-12 19:30N 35°55' W 000°05'1 1.2
2018-Jul-12 18:58N 35°56' W 000°06'0 1.0
2018-Jul-12 18:30N 35°56' W 000°06'1 1.1
2018-Jul-12 17:12N 35°57' W 000°06'0 1.2
2018-Jul-12 16:55N 35°58' W 000°06'1 1.2
2018-Jul-12 16:27N 35°58' W 000°06'0 1.1
2018-Jul-12 16:00N 35°59' W 000°06'0 0.8
2018-Jul-12 15:28N 35°59' W 000°06'0 0.8
2018-Jul-12 14:57N 35°59' W 000°07'1 1.3
2018-Jul-12 13:59N 36°01' W 000°07'2 1.3
2018-Jul-12 12:20N 36°03' W 000°08'1 1.1
2018-Jul-12 11:43N 36°03' W 000°08'0 1.0
2018-Jul-12 11:30N 36°04' W 000°08'0 0.8
2018-Jul-12 10:59N 36°04' W 000°09'0 0.6
2018-Jul-12 10:30N 36°04' W 000°09'0 0.4
2018-Jul-12 10:00N 36°04' W 000°09'2 0.5
2018-Jul-12 05:53N 36°03' W 000°12'0 0.3
2018-Jul-12 04:55N 36°03' W 000°12'0 0.4
2018-Jul-12 04:30N 36°03' W 000°12'0 0.6
2018-Jul-12 04:00N 36°03' W 000°13'0 0.7
2018-Jul-12 03:29N 36°03' W 000°13'0 0.7
2018-Jul-12 03:00N 36°02' W 000°13'0 0.5
2018-Jul-12 02:17N 36°02' W 000°13'0 0.7
2018-Jul-12 01:40N 36°01' W 000°13'0 0.7
2018-Jul-12 01:28N 36°01' W 000°13'0 0.6
2018-Jul-12 01:00N 36°01' W 000°12'2 0.5
2018-Jul-11 19:47N 35°60' W 000°10'0 0.5
2018-Jul-11 19:30N 35°60' W 000°10'0 0.5
2018-Jul-11 18:57N 36°00' W 000°09'0 0.6
2018-Jul-11 18:30N 36°00' W 000°09'0 0.5
2018-Jul-11 18:00N 36°01' W 000°09'0 0.6
2018-Jul-11 17:30N 36°01' W 000°09'1 1.0
2018-Jul-11 17:00N 36°01' W 000°09'2 3.2
2018-Jul-11 16:30N 36°03' W 000°08'612.8
2018-Jul-11 16:00N 36°04' W 000°01'0 0.4
2018-Jul-11 15:29N 36°04' W 000°00'0 0.8
2018-Jul-11 14:55N 36°05' W 000°00'0 0.8
2018-Jul-11 14:30N 36°05' W 000°01'0 0.8
2018-Jul-11 13:55N 36°05' W 000°01'0 0.9
2018-Jul-11 13:30N 36°06' W 000°01'0 0.9
2018-Jul-11 13:00N 36°06' W 000°02'6 3.7
2018-Jul-11 11:29N 36°00' W 000°01'0 0.9
2018-Jul-11 11:00N 36°01' W 000°01'2 0.5
2018-Jul-11 08:10N 36°01' W 000°03'3 0.8
2018-Jul-11 04:05N 35°59' W 000°06'0 0.4
2018-Jul-11 03:55N 35°59' W 000°06'1 1.2
2018-Jul-11 03:30N 35°59' W 000°06'1 1.2
2018-Jul-11 02:59N 35°58' W 000°07'0 0.9
2018-Jul-11 02:30N 35°58' W 000°07'0 0.7
2018-Jul-11 01:59N 35°58' W 000°08'  

Dump ship's entire track history